createdAt,value
2019-05-01T00:01:21.672Z,16.17
2019-05-01T00:03:06.544Z,14.55
2019-05-01T00:04:59.427Z,15.28
2019-05-01T00:06:35.285Z,19.07
2019-05-01T00:08:10.613Z,13.95
2019-05-01T00:09:44.841Z,15.18
2019-05-01T00:11:19.446Z,14.03
2019-05-01T00:12:53.648Z,14.45
2019-05-01T00:14:28.252Z,16.40
2019-05-01T00:16:02.736Z,16.57
2019-05-01T00:17:37.373Z,13.50
2019-05-01T00:19:11.587Z,14.65
2019-05-01T00:20:45.827Z,21.68
2019-05-01T00:22:20.044Z,23.75
2019-05-01T00:23:54.741Z,38.00
2019-05-01T00:25:29.030Z,48.08
2019-05-01T00:27:03.259Z,39.33
2019-05-01T00:28:37.468Z,51.58
2019-05-01T00:30:13.930Z,78.40
2019-05-01T00:31:48.143Z,57.78
2019-05-01T00:33:22.369Z,67.17
2019-05-01T00:34:56.592Z,65.67
2019-05-01T00:36:31.172Z,53.48
2019-05-01T00:38:05.378Z,50.30
2019-05-01T00:39:39.611Z,46.18
2019-05-01T00:41:13.844Z,40.92
2019-05-01T00:42:47.801Z,36.93
2019-05-01T00:44:22.017Z,27.58
2019-05-01T00:45:56.238Z,26.15
2019-05-01T00:47:30.493Z,25.62
2019-05-01T00:49:04.943Z,26.37
2019-05-01T00:50:39.164Z,24.27
2019-05-01T00:52:13.456Z,22.82
2019-05-01T00:53:47.716Z,20.68
2019-05-01T00:55:39.183Z,22.60
2019-05-01T00:57:27.249Z,20.72
2019-05-01T00:59:03.124Z,18.37
2019-05-01T01:00:55.300Z,18.40
2019-05-01T01:02:31.143Z,14.60
2019-05-01T01:04:05.353Z,16.15
2019-05-01T01:05:39.644Z,16.45
2019-05-01T01:07:14.591Z,15.93
2019-05-01T01:08:48.810Z,27.73
2019-05-01T01:10:23.420Z,42.17
2019-05-01T01:11:57.650Z,92.60
2019-05-01T01:13:32.243Z,92.70
2019-05-01T01:15:07.271Z,41.92
2019-05-01T01:16:41.488Z,47.55
2019-05-01T01:18:15.836Z,38.75
2019-05-01T01:19:50.417Z,39.63
2019-05-01T01:21:24.632Z,32.35
2019-05-01T01:22:58.952Z,25.82
2019-05-01T01:24:33.244Z,32.08
2019-05-01T01:26:08.062Z,31.48
2019-05-01T01:27:42.280Z,27.05
2019-05-01T01:29:16.501Z,27.40
2019-05-01T01:30:56.491Z,24.75
2019-05-01T01:32:26.880Z,27.05
2019-05-01T01:34:01.140Z,19.40
2019-05-01T01:35:35.360Z,20.55
2019-05-01T01:37:09.577Z,19.95
2019-05-01T01:38:44.498Z,19.95
2019-05-01T01:40:19.320Z,18.30
2019-05-01T01:41:53.817Z,20.27
2019-05-01T01:43:35.700Z,19.00
2019-05-01T01:45:15.052Z,30.05
2019-05-01T01:46:53.593Z,62.17
2019-05-01T01:48:27.927Z,67.55
2019-05-01T01:50:02.366Z,71.47
2019-05-01T01:51:37.363Z,84.28
2019-05-01T01:53:13.731Z,79.03
2019-05-01T01:54:47.956Z,119.22
2019-05-01T01:56:22.932Z,89.70
2019-05-01T01:57:58.249Z,92.67
2019-05-01T01:59:32.969Z,70.30
2019-05-01T02:01:14.861Z,100.87
2019-05-01T02:02:50.748Z,88.80
2019-05-01T02:04:33.276Z,90.47
2019-05-01T02:06:07.578Z,130.12
2019-05-01T02:07:41.804Z,221.55
2019-05-01T02:09:16.345Z,234.40
2019-05-01T02:10:50.959Z,154.85
2019-05-01T02:12:25.225Z,205.87
2019-05-01T02:13:59.452Z,185.25
2019-05-01T02:15:33.819Z,280.67
2019-05-01T02:17:08.505Z,230.37
2019-05-01T02:18:42.732Z,133.52
2019-05-01T02:20:16.986Z,145.97
2019-05-01T02:21:51.205Z,164.72
2019-05-01T02:23:25.961Z,212.20
2019-05-01T02:25:01.818Z,109.55
2019-05-01T02:26:37.788Z,134.95
2019-05-01T02:28:32.137Z,113.45
2019-05-01T02:30:09.705Z,124.00
2019-05-01T02:31:46.217Z,110.60
2019-05-01T02:33:20.547Z,107.15
2019-05-01T02:34:56.654Z,116.28
2019-05-01T02:36:31.764Z,78.75
2019-05-01T02:38:07.331Z,75.45
2019-05-01T02:39:44.056Z,84.05
2019-05-01T02:41:20.988Z,105.17
2019-05-01T02:42:56.312Z,76.77
2019-05-01T02:44:36.306Z,113.83
2019-05-01T02:46:13.633Z,105.43
2019-05-01T02:47:49.068Z,76.15
2019-05-01T02:49:28.794Z,56.10
2019-05-01T02:51:05.144Z,66.22
2019-05-01T02:52:42.688Z,74.87
2019-05-01T02:54:19.615Z,98.12
2019-05-01T02:56:13.852Z,76.90
2019-05-01T02:57:48.818Z,77.35
2019-05-01T02:59:26.721Z,70.83
2019-05-01T03:01:00.942Z,107.43
2019-05-01T03:02:36.158Z,78.10
2019-05-01T03:04:11.298Z,91.53
2019-05-01T03:05:46.017Z,133.72
2019-05-01T03:07:21.535Z,139.10
2019-05-01T03:08:57.481Z,190.97
2019-05-01T03:10:32.239Z,93.42
2019-05-01T03:12:08.576Z,88.82
2019-05-01T03:13:45.877Z,120.72
2019-05-01T03:15:22.800Z,106.12
2019-05-01T03:17:01.424Z,132.80
2019-05-01T03:18:37.878Z,78.52
2019-05-01T03:20:22.073Z,114.52
2019-05-01T03:21:58.158Z,76.55
2019-05-01T03:23:34.161Z,81.32
2019-05-01T03:25:09.233Z,166.28
2019-05-01T03:26:43.507Z,74.35
2019-05-01T03:28:18.704Z,62.53
2019-05-01T03:29:53.134Z,87.15
2019-05-01T03:31:27.859Z,75.22
2019-05-01T03:33:02.180Z,52.93
2019-05-01T03:34:36.705Z,67.05
2019-05-01T03:36:11.317Z,64.90
2019-05-01T03:37:46.526Z,37.50
2019-05-01T03:39:20.878Z,36.48
2019-05-01T03:40:55.405Z,23.75
2019-05-01T03:42:30.522Z,33.45
2019-05-01T03:44:06.448Z,35.90
2019-05-01T03:45:41.385Z,30.90
2019-05-01T03:47:16.090Z,32.33
2019-05-01T03:48:50.602Z,29.45
2019-05-01T03:50:25.016Z,23.15
2019-05-01T03:51:59.283Z,19.37
2019-05-01T03:53:34.197Z,25.50
2019-05-01T03:55:08.421Z,22.17
2019-05-01T03:56:43.091Z,20.00
2019-05-01T03:58:18.456Z,15.60
2019-05-01T03:59:52.769Z,17.00
2019-05-01T04:01:42.029Z,12.75
2019-05-01T04:03:25.205Z,10.80
2019-05-01T04:04:59.957Z,15.32
2019-05-01T04:06:34.156Z,13.88
2019-05-01T04:08:08.494Z,14.28
2019-05-01T04:09:43.058Z,15.25
2019-05-01T04:11:17.793Z,15.03
2019-05-01T04:12:52.104Z,14.00
2019-05-01T04:14:26.445Z,16.75
2019-05-01T04:16:01.229Z,13.20
2019-05-01T04:17:48.666Z,14.47
2019-05-01T04:19:23.043Z,10.03
2019-05-01T04:20:58.664Z,11.10
2019-05-01T04:22:34.051Z,12.40
2019-05-01T04:24:08.353Z,9.03
2019-05-01T04:25:42.881Z,9.40
2019-05-01T04:27:18.814Z,7.40
2019-05-01T04:29:01.379Z,6.22
2019-05-01T04:30:37.790Z,13.53
2019-05-01T04:32:13.886Z,6.42
2019-05-01T04:33:50.138Z,17.67
2019-05-01T04:35:29.351Z,9.05
2019-05-01T04:37:05.299Z,10.05
2019-05-01T04:38:39.636Z,12.53
2019-05-01T04:40:18.516Z,5.03
2019-05-01T04:41:51.689Z,6.30
2019-05-01T04:43:26.237Z,5.15
2019-05-01T04:45:00.524Z,9.35
2019-05-01T04:46:36.096Z,10.88
2019-05-01T04:48:10.663Z,16.15
2019-05-01T04:49:45.021Z,68.42
2019-05-01T04:51:19.481Z,21.93
2019-05-01T04:52:53.788Z,62.45
2019-05-01T04:54:28.521Z,39.03
2019-05-01T04:56:02.774Z,13.45
2019-05-01T04:57:37.251Z,8.53
2019-05-01T04:59:11.864Z,14.20
2019-05-01T05:00:47.299Z,8.10
2019-05-01T05:02:35.353Z,4.47
2019-05-01T05:04:09.571Z,7.33
2019-05-01T05:05:44.336Z,4.08
2019-05-01T05:07:19.085Z,4.53
2019-05-01T05:08:53.302Z,3.72
2019-05-01T05:10:27.912Z,4.28
2019-05-01T05:12:03.758Z,4.75
2019-05-01T05:13:40.017Z,3.22
2019-05-01T05:15:15.915Z,4.20
2019-05-01T05:16:55.136Z,4.47
2019-05-01T05:18:30.338Z,4.00
2019-05-01T05:20:06.886Z,4.47
2019-05-01T05:21:41.189Z,5.12
2019-05-01T05:23:16.166Z,6.70
2019-05-01T05:24:52.280Z,5.45
2019-05-01T05:26:27.414Z,7.67
2019-05-01T05:28:02.811Z,5.58
2019-05-01T05:29:37.943Z,9.25
2019-05-01T05:31:13.824Z,5.62
2019-05-01T05:32:49.975Z,13.40
2019-05-01T05:34:26.793Z,6.20
2019-05-01T05:36:02.307Z,7.62
2019-05-01T05:37:40.255Z,4.78
2019-05-01T05:39:18.275Z,5.62
2019-05-01T05:40:53.005Z,2.70
2019-05-01T05:42:28.113Z,4.97
2019-05-01T05:44:02.491Z,2.40
2019-05-01T05:45:37.293Z,2.85
2019-05-01T05:47:12.004Z,3.22
2019-05-01T05:48:46.725Z,3.50
2019-05-01T05:50:22.573Z,4.33
2019-05-01T05:52:12.945Z,5.45
2019-05-01T05:53:50.789Z,3.15
2019-05-01T05:55:31.886Z,3.22
2019-05-01T05:57:18.808Z,3.27
2019-05-01T05:59:05.684Z,5.40
2019-05-01T06:00:52.119Z,3.37
2019-05-01T06:02:36.148Z,2.67
2019-05-01T06:04:29.353Z,3.77
2019-05-01T06:06:15.717Z,2.40
2019-05-01T06:08:11.112Z,2.12
2019-05-01T06:09:49.591Z,2.75
2019-05-01T06:11:44.350Z,2.85
2019-05-01T06:13:37.369Z,3.58
2019-05-01T06:15:13.216Z,2.62
2019-05-01T06:16:55.596Z,4.90
2019-05-01T06:18:34.759Z,3.52
2019-05-01T06:20:10.464Z,3.80
2019-05-01T06:21:55.958Z,2.33
2019-05-01T06:23:34.380Z,2.35
2019-05-01T06:25:21.109Z,2.37
2019-05-01T06:26:47.536Z,4.03
2019-05-01T06:28:24.956Z,4.25
2019-05-01T06:29:59.316Z,2.55
2019-05-01T06:31:33.697Z,2.95
2019-05-01T06:33:09.533Z,8.75
2019-05-01T06:34:44.005Z,6.03
2019-05-01T06:36:18.664Z,2.25
2019-05-01T06:38:04.842Z,5.42
2019-05-01T06:39:42.794Z,3.47
2019-05-01T06:41:18.400Z,5.67
2019-05-01T06:42:52.741Z,3.35
2019-05-01T06:44:33.343Z,4.30
2019-05-01T06:46:13.932Z,4.40
2019-05-01T06:47:52.294Z,5.28
2019-05-01T06:49:43.221Z,6.08
2019-05-01T06:51:34.960Z,2.42
2019-05-01T06:53:09.760Z,4.33
2019-05-01T06:54:47.891Z,2.80
2019-05-01T06:56:20.289Z,2.47
2019-05-01T06:57:54.852Z,3.65
2019-05-01T06:59:31.294Z,2.50
2019-05-01T07:01:06.582Z,3.10
2019-05-01T07:02:42.332Z,3.20
2019-05-01T07:04:17.114Z,2.02
2019-05-01T07:05:54.388Z,1.90
2019-05-01T07:07:35.272Z,4.15
2019-05-01T07:09:11.948Z,1.07
2019-05-01T07:10:47.565Z,4.47
2019-05-01T07:12:23.818Z,4.37
2019-05-01T07:13:59.541Z,1.32
2019-05-01T07:15:33.905Z,2.58
2019-05-01T07:17:09.018Z,2.25
2019-05-01T07:18:44.077Z,1.70
2019-05-01T07:20:35.192Z,3.98
2019-05-01T07:22:09.514Z,2.65
2019-05-01T07:23:47.865Z,1.80
2019-05-01T07:25:21.048Z,0.78
2019-05-01T07:26:55.251Z,4.15
2019-05-01T07:28:34.405Z,1.60
2019-05-01T07:30:10.222Z,2.00
2019-05-01T07:31:44.632Z,1.87
2019-05-01T07:33:19.238Z,2.02
2019-05-01T07:34:56.881Z,1.87
2019-05-01T07:36:29.552Z,4.45
2019-05-01T07:38:04.133Z,6.42
2019-05-01T07:39:38.548Z,7.10
2019-05-01T07:41:13.069Z,1.55
2019-05-01T07:42:49.438Z,9.35
2019-05-01T07:44:29.944Z,3.62
2019-05-01T07:46:09.345Z,3.17
2019-05-01T07:47:48.984Z,2.15
2019-05-01T07:49:38.396Z,1.67
2019-05-01T07:51:12.692Z,1.42
2019-05-01T07:52:52.343Z,0.80
2019-05-01T07:54:25.855Z,1.52
2019-05-01T07:56:00.418Z,1.85
2019-05-01T07:57:39.687Z,2.75
2019-05-01T07:59:14.209Z,2.72
2019-05-01T08:00:51.769Z,1.40
2019-05-01T08:02:30.825Z,2.40
2019-05-01T08:04:01.889Z,1.12
2019-05-01T08:05:36.168Z,1.12
2019-05-01T08:07:10.878Z,1.07
2019-05-01T08:08:45.075Z,0.72
2019-05-01T08:10:20.974Z,2.02
2019-05-01T08:11:55.238Z,0.80
2019-05-01T08:13:30.668Z,1.87
2019-05-01T08:15:06.228Z,0.80
2019-05-01T08:16:42.561Z,0.80
2019-05-01T08:18:18.036Z,2.75
2019-05-01T08:19:54.177Z,3.37
2019-05-01T08:21:30.028Z,0.57
2019-05-01T08:23:07.663Z,1.47
2019-05-01T08:24:40.388Z,0.70
2019-05-01T08:26:14.904Z,1.37
2019-05-01T08:28:02.802Z,0.82
2019-05-01T08:29:42.384Z,1.22
2019-05-01T08:31:23.114Z,1.42
2019-05-01T08:33:09.788Z,3.08
2019-05-01T08:34:49.153Z,4.08
2019-05-01T08:36:20.508Z,0.60
2019-05-01T08:37:58.612Z,3.27
2019-05-01T08:39:30.909Z,2.27
2019-05-01T08:41:05.130Z,2.80
2019-05-01T08:42:42.678Z,7.08
2019-05-01T08:44:15.544Z,2.70
2019-05-01T08:46:11.782Z,2.12
2019-05-01T08:48:02.223Z,0.95
2019-05-01T08:49:42.251Z,2.62
2019-05-01T08:51:14.461Z,1.20
2019-05-01T08:52:48.767Z,3.45
2019-05-01T08:54:22.908Z,3.87
2019-05-01T08:55:57.302Z,2.25
2019-05-01T08:57:34.588Z,2.90
2019-05-01T08:59:07.387Z,0.95
2019-05-01T09:00:41.758Z,0.85
2019-05-01T09:02:16.172Z,1.55
2019-05-01T09:03:54.084Z,6.55
2019-05-01T09:05:30.029Z,2.60
2019-05-01T09:07:02.434Z,3.42
2019-05-01T09:08:37.096Z,1.45
2019-05-01T09:10:11.812Z,3.47
2019-05-01T09:11:46.032Z,1.42
2019-05-01T09:13:23.805Z,3.85
2019-05-01T09:14:56.613Z,1.72
2019-05-01T09:16:34.103Z,3.85
2019-05-01T09:18:08.279Z,2.83
2019-05-01T09:19:42.480Z,1.98
2019-05-01T09:21:17.017Z,1.05
2019-05-01T09:22:51.228Z,2.60
2019-05-01T09:24:27.850Z,1.95
2019-05-01T09:26:16.225Z,1.02
2019-05-01T09:28:05.685Z,0.98
2019-05-01T09:29:46.754Z,0.88
2019-05-01T09:31:22.012Z,3.42
2019-05-01T09:32:56.225Z,2.05
2019-05-01T09:34:30.729Z,1.98
2019-05-01T09:36:04.933Z,0.57
2019-05-01T09:37:39.147Z,1.30
2019-05-01T09:39:14.980Z,1.40
2019-05-01T09:40:50.461Z,1.95
2019-05-01T09:42:25.386Z,2.20
2019-05-01T09:43:59.680Z,2.98
2019-05-01T09:45:33.955Z,3.77
2019-05-01T09:47:08.892Z,1.22
2019-05-01T09:48:43.265Z,3.42
2019-05-01T09:50:17.536Z,2.72
2019-05-01T09:51:59.587Z,1.27
2019-05-01T09:53:35.689Z,1.15
2019-05-01T09:55:18.009Z,2.62
2019-05-01T09:56:49.816Z,2.02
2019-05-01T09:58:24.087Z,2.08
2019-05-01T10:00:00.179Z,1.30
2019-05-01T10:01:34.657Z,1.50
2019-05-01T10:03:13.078Z,1.80
2019-05-01T10:04:44.848Z,7.17
2019-05-01T10:06:19.268Z,3.60
2019-05-01T10:07:53.734Z,3.70
2019-05-01T10:09:28.030Z,1.40
2019-05-01T10:11:05.123Z,1.62
2019-05-01T10:12:41.794Z,1.72
2019-05-01T10:14:14.624Z,3.95
2019-05-01T10:15:48.889Z,8.33
2019-05-01T10:17:23.112Z,3.70
2019-05-01T10:18:57.856Z,3.17
2019-05-01T10:20:33.252Z,6.62
2019-05-01T10:22:07.501Z,5.12
2019-05-01T10:23:41.784Z,1.40
2019-05-01T10:25:17.145Z,2.12
2019-05-01T10:26:55.232Z,1.45
2019-05-01T10:28:30.608Z,2.22
2019-05-01T10:30:10.873Z,5.62
2019-05-01T10:32:03.572Z,3.12
2019-05-01T10:33:39.412Z,1.85
2019-05-01T10:35:19.301Z,3.50
2019-05-01T10:36:54.506Z,1.27
2019-05-01T10:38:27.473Z,1.62
2019-05-01T10:40:01.742Z,1.57
2019-05-01T10:41:35.941Z,0.60
2019-05-01T10:43:10.712Z,1.22
2019-05-01T10:44:45.241Z,0.62
2019-05-01T10:46:19.449Z,1.15
2019-05-01T10:47:53.652Z,1.10
2019-05-01T10:49:31.028Z,1.27
2019-05-01T10:51:05.562Z,1.27
2019-05-01T10:52:39.824Z,6.00
2019-05-01T10:54:14.068Z,2.08
2019-05-01T10:55:48.340Z,2.55
2019-05-01T10:57:23.120Z,3.80
2019-05-01T10:58:57.776Z,1.87
2019-05-01T11:00:32.029Z,1.40
2019-05-01T11:02:07.972Z,3.22
2019-05-01T11:03:42.794Z,4.10
2019-05-01T11:05:17.164Z,2.60
2019-05-01T11:06:51.369Z,2.75
2019-05-01T11:08:25.622Z,2.55
2019-05-01T11:10:00.170Z,1.27
2019-05-01T11:11:34.396Z,1.15
2019-05-01T11:13:08.584Z,4.10
2019-05-01T11:14:43.438Z,2.22
2019-05-01T11:16:18.220Z,0.70
2019-05-01T11:17:52.430Z,1.98
2019-05-01T11:19:29.503Z,1.67
2019-05-01T11:21:02.601Z,0.93
2019-05-01T11:22:37.200Z,1.95
2019-05-01T11:24:11.400Z,0.70
2019-05-01T11:25:45.617Z,2.90
2019-05-01T11:27:19.892Z,2.37
2019-05-01T11:28:54.645Z,1.37
2019-05-01T11:30:29.229Z,1.50
2019-05-01T11:32:11.067Z,2.80
2019-05-01T11:33:59.432Z,0.70
2019-05-01T11:35:51.781Z,0.40
2019-05-01T11:37:33.346Z,1.20
2019-05-01T11:39:21.961Z,1.25
2019-05-01T11:41:06.684Z,3.22
2019-05-01T11:42:40.920Z,1.17
2019-05-01T11:44:15.124Z,2.22
2019-05-01T11:45:50.255Z,4.78
2019-05-01T11:47:24.440Z,0.65
2019-05-01T11:48:59.457Z,2.30
2019-05-01T11:50:33.657Z,1.77
2019-05-01T11:52:08.437Z,3.47
2019-05-01T11:53:42.732Z,5.50
2019-05-01T11:55:16.942Z,0.95
2019-05-01T11:56:51.144Z,3.83
2019-05-01T11:58:25.558Z,1.67
2019-05-01T11:59:59.804Z,3.22
2019-05-01T12:01:34.009Z,1.40
2019-05-01T12:03:08.249Z,0.68
2019-05-01T12:04:42.917Z,0.95
2019-05-01T12:06:23.025Z,3.33
2019-05-01T12:07:53.114Z,4.17
2019-05-01T12:09:27.333Z,0.88
2019-05-01T12:11:03.009Z,1.10
2019-05-01T12:12:37.224Z,2.60
2019-05-01T12:14:11.470Z,2.17
2019-05-01T12:15:47.318Z,2.83
2019-05-01T12:17:30.090Z,2.10
2019-05-01T12:19:04.353Z,3.25
2019-05-01T12:20:38.552Z,0.85
2019-05-01T12:22:12.836Z,1.30
2019-05-01T12:23:47.435Z,1.65
2019-05-01T12:25:21.809Z,0.82
2019-05-01T12:26:55.961Z,4.65
2019-05-01T12:28:30.213Z,0.95
2019-05-01T12:30:09.773Z,1.42
2019-05-01T12:31:44.025Z,1.27
2019-05-01T12:33:18.627Z,1.45
2019-05-01T12:34:52.828Z,0.95
2019-05-01T12:36:35.964Z,1.17
2019-05-01T12:38:04.924Z,3.60
2019-05-01T12:39:39.139Z,3.42
2019-05-01T12:41:20.974Z,3.10
2019-05-01T12:42:55.460Z,1.80
2019-05-01T12:44:29.737Z,1.27
2019-05-01T12:46:04.022Z,3.27
2019-05-01T12:47:42.732Z,3.15
2019-05-01T12:49:17.714Z,2.40
2019-05-01T12:50:52.112Z,4.05
2019-05-01T12:52:46.005Z,3.83
2019-05-01T12:54:36.923Z,4.37
2019-05-01T12:56:29.103Z,2.52
2019-05-01T12:58:03.436Z,2.65
2019-05-01T12:59:37.717Z,1.72
2019-05-01T13:01:12.363Z,1.07
2019-05-01T13:02:46.637Z,3.47
2019-05-01T13:04:21.565Z,0.85
2019-05-01T13:05:55.768Z,5.60
2019-05-01T13:07:33.706Z,1.98
2019-05-01T13:09:08.812Z,1.45
2019-05-01T13:10:43.067Z,1.45
2019-05-01T13:12:17.261Z,0.80
2019-05-01T13:13:51.666Z,0.70
2019-05-01T13:15:25.975Z,1.07
2019-05-01T13:17:00.185Z,0.93
2019-05-01T13:18:34.429Z,2.65
2019-05-01T13:20:09.215Z,2.47
2019-05-01T13:21:43.454Z,0.93
2019-05-01T13:23:17.652Z,2.50
2019-05-01T13:24:51.939Z,1.12
2019-05-01T13:26:28.099Z,9.68
2019-05-01T13:28:18.906Z,1.87
2019-05-01T13:30:00.518Z,1.45
2019-05-01T13:31:36.530Z,1.67
2019-05-01T13:33:10.800Z,1.65
2019-05-01T13:34:45.424Z,1.00
2019-05-01T13:36:19.632Z,1.37
2019-05-01T13:37:54.280Z,0.95
2019-05-01T13:39:28.709Z,3.15
2019-05-01T13:41:03.001Z,5.15
2019-05-01T13:42:37.303Z,9.98
2019-05-01T13:44:11.835Z,2.85
2019-05-01T13:45:46.076Z,1.75
2019-05-01T13:47:21.966Z,2.47
2019-05-01T13:48:56.172Z,1.47
2019-05-01T13:50:31.145Z,8.68
2019-05-01T13:52:05.472Z,2.30
2019-05-01T13:53:39.669Z,2.45
2019-05-01T13:55:17.528Z,6.70
2019-05-01T13:56:52.067Z,4.85
2019-05-01T13:58:26.384Z,2.55
2019-05-01T14:00:00.593Z,3.30
2019-05-01T14:01:34.872Z,1.55
2019-05-01T14:03:09.349Z,2.12
2019-05-01T14:04:43.668Z,1.27
2019-05-01T14:06:18.232Z,2.25
2019-05-01T14:07:52.436Z,3.08
2019-05-01T14:09:28.598Z,6.00
2019-05-01T14:11:03.096Z,3.10
2019-05-01T14:12:37.413Z,2.35
2019-05-01T14:14:11.638Z,4.65
2019-05-01T14:15:46.159Z,1.65
2019-05-01T14:17:20.376Z,4.60
2019-05-01T14:18:54.670Z,3.25
2019-05-01T14:20:30.529Z,3.10
2019-05-01T14:22:23.170Z,3.15
2019-05-01T14:24:15.200Z,1.20
2019-05-01T14:26:05.693Z,2.47
2019-05-01T14:27:40.098Z,2.95
2019-05-01T14:29:14.367Z,3.35
2019-05-01T14:30:48.681Z,6.33
2019-05-01T14:32:22.911Z,2.37
2019-05-01T14:33:57.297Z,1.45
2019-05-01T14:35:31.496Z,1.00
2019-05-01T14:37:06.140Z,3.52
2019-05-01T14:38:40.349Z,2.05
2019-05-01T14:40:14.880Z,5.78
2019-05-01T14:41:49.076Z,1.42
2019-05-01T14:43:23.746Z,2.42
2019-05-01T14:44:57.944Z,5.92
2019-05-01T14:46:32.552Z,3.10
2019-05-01T14:48:06.820Z,4.75
2019-05-01T14:49:41.077Z,3.62
2019-05-01T14:51:16.214Z,7.80
2019-05-01T14:52:51.310Z,3.98
2019-05-01T14:54:25.532Z,10.13
2019-05-01T14:55:59.763Z,4.85
2019-05-01T14:57:34.006Z,7.28
2019-05-01T14:59:08.503Z,3.47
2019-05-01T15:00:42.721Z,3.27
2019-05-01T15:02:17.670Z,1.30
2019-05-01T15:03:51.962Z,3.42
2019-05-01T15:05:26.641Z,2.40
2019-05-01T15:07:00.897Z,3.12
2019-05-01T15:08:35.625Z,7.03
2019-05-01T15:10:10.240Z,4.25
2019-05-01T15:11:45.518Z,8.35
2019-05-01T15:13:27.345Z,7.60
2019-05-01T15:15:06.377Z,4.92
2019-05-01T15:16:42.228Z,5.83
2019-05-01T15:18:24.072Z,4.50
2019-05-01T15:20:03.047Z,3.47
2019-05-01T15:21:37.321Z,13.20
2019-05-01T15:23:11.654Z,12.60
2019-05-01T15:24:46.313Z,91.90
2019-05-01T15:26:20.536Z,40.85
2019-05-01T15:27:54.793Z,6.67
2019-05-01T15:29:29.008Z,8.55
2019-05-01T15:31:03.552Z,6.45
2019-05-01T15:32:37.773Z,2.67
2019-05-01T15:34:12.072Z,9.35
2019-05-01T15:35:46.281Z,4.03
2019-05-01T15:37:22.742Z,4.35
2019-05-01T15:38:57.736Z,6.60
2019-05-01T15:40:36.448Z,10.93
2019-05-01T15:42:18.312Z,3.98
2019-05-01T15:43:54.532Z,2.85
2019-05-01T15:45:28.824Z,4.40
2019-05-01T15:47:03.035Z,5.12
2019-05-01T15:48:39.394Z,6.65
2019-05-01T15:50:14.232Z,3.02
2019-05-01T15:51:48.449Z,3.10
2019-05-01T15:53:22.789Z,3.85
2019-05-01T15:54:57.004Z,3.50
2019-05-01T15:56:31.336Z,4.85
2019-05-01T15:58:05.580Z,5.42
2019-05-01T15:59:39.795Z,4.05
2019-05-01T16:01:14.077Z,5.60
2019-05-01T16:02:48.813Z,5.53
2019-05-01T16:04:23.065Z,11.80
2019-05-01T16:05:57.300Z,16.05
2019-05-01T16:07:31.520Z,7.97
2019-05-01T16:09:07.805Z,13.30
2019-05-01T16:10:52.951Z,76.53
2019-05-01T16:12:31.641Z,98.15
2019-05-01T16:14:05.879Z,34.88
2019-05-01T16:15:40.341Z,21.25
2019-05-01T16:17:14.564Z,8.43
2019-05-01T16:18:48.825Z,20.75
2019-05-01T16:20:23.131Z,13.45
2019-05-01T16:21:57.677Z,12.25
2019-05-01T16:23:31.892Z,13.83
2019-05-01T16:25:08.178Z,5.62
2019-05-01T16:26:42.669Z,11.12
2019-05-01T16:28:17.192Z,10.18
2019-05-01T16:29:51.357Z,6.40
2019-05-01T16:31:25.732Z,12.33
2019-05-01T16:32:59.946Z,9.05
2019-05-01T16:34:34.701Z,8.03
2019-05-01T16:36:08.988Z,9.13
2019-05-01T16:37:43.201Z,4.42
2019-05-01T16:39:25.042Z,8.93
2019-05-01T16:41:02.185Z,6.78
2019-05-01T16:42:36.473Z,7.08
2019-05-01T16:44:10.780Z,8.50
2019-05-01T16:45:45.117Z,9.10
2019-05-01T16:47:19.632Z,3.55
2019-05-01T16:48:53.913Z,3.27
2019-05-01T16:50:28.329Z,5.72
2019-05-01T16:52:02.573Z,5.35
2019-05-01T16:53:37.292Z,9.73
2019-05-01T16:55:11.717Z,2.47
2019-05-01T16:56:45.920Z,2.85
2019-05-01T16:58:20.340Z,4.17
2019-05-01T16:59:56.790Z,3.02
2019-05-01T17:01:47.745Z,6.33
2019-05-01T17:03:23.615Z,5.15
2019-05-01T17:04:59.705Z,3.65
2019-05-01T17:06:51.724Z,1.92
2019-05-01T17:08:36.064Z,1.87
2019-05-01T17:10:08.111Z,2.00
2019-05-01T17:11:42.338Z,2.33
2019-05-01T17:13:16.657Z,1.90
2019-05-01T17:14:51.285Z,17.87
2019-05-01T17:16:26.273Z,13.13
2019-05-01T17:18:00.534Z,5.05
2019-05-01T17:19:34.766Z,4.42
2019-05-01T17:21:09.157Z,3.12
2019-05-01T17:22:46.316Z,3.85
2019-05-01T17:24:19.741Z,5.37
2019-05-01T17:25:53.952Z,4.17
2019-05-01T17:27:28.231Z,3.70
2019-05-01T17:29:02.817Z,8.20
2019-05-01T17:30:49.092Z,3.35
2019-05-01T17:32:23.296Z,3.85
2019-05-01T17:33:57.525Z,7.17
2019-05-01T17:35:32.361Z,3.17
2019-05-01T17:37:09.268Z,4.37
2019-05-01T17:38:49.689Z,10.85
2019-05-01T17:40:19.461Z,12.90
2019-05-01T17:41:57.615Z,14.53
2019-05-01T17:43:29.924Z,13.05
2019-05-01T17:45:08.244Z,13.32
2019-05-01T17:46:46.905Z,9.43
2019-05-01T17:48:18.817Z,10.75
2019-05-01T17:49:53.029Z,8.90
2019-05-01T17:51:27.339Z,10.80
2019-05-01T17:53:01.506Z,4.55
2019-05-01T17:54:35.918Z,9.88
2019-05-01T17:56:15.122Z,9.13
2019-05-01T17:57:46.028Z,8.90
2019-05-01T17:59:20.248Z,10.53
2019-05-01T18:01:02.551Z,12.75
2019-05-01T18:02:44.756Z,14.25
2019-05-01T18:04:26.246Z,8.48
2019-05-01T18:06:14.340Z,5.30
2019-05-01T18:07:48.701Z,5.42
2019-05-01T18:09:22.928Z,8.95
2019-05-01T18:10:57.200Z,9.70
2019-05-01T18:12:31.612Z,9.20
2019-05-01T18:14:06.067Z,10.08
2019-05-01T18:15:40.425Z,6.95
2019-05-01T18:17:14.821Z,10.10
2019-05-01T18:18:49.273Z,9.18
2019-05-01T18:20:23.578Z,6.00
2019-05-01T18:22:14.492Z,6.42
2019-05-01T18:24:05.339Z,7.83
2019-05-01T18:25:56.128Z,7.85
2019-05-01T18:27:43.696Z,8.58
2019-05-01T18:29:35.597Z,10.65
2019-05-01T18:31:09.530Z,18.17
2019-05-01T18:32:47.575Z,8.63
2019-05-01T18:34:19.700Z,5.55
2019-05-01T18:35:54.361Z,10.15
2019-05-01T18:37:31.150Z,10.53
2019-05-01T18:39:27.134Z,6.97
2019-05-01T18:41:19.722Z,3.95
2019-05-01T18:42:54.067Z,7.75
2019-05-01T18:44:28.268Z,5.37
2019-05-01T18:46:08.038Z,5.40
2019-05-01T18:47:42.590Z,5.92
2019-05-01T18:49:17.100Z,4.67
2019-05-01T18:50:55.036Z,4.28
2019-05-01T18:52:27.558Z,6.20
2019-05-01T18:54:02.180Z,3.47
2019-05-01T18:55:36.797Z,3.72
2019-05-01T18:57:11.274Z,6.22
2019-05-01T18:58:45.487Z,4.30
2019-05-01T19:00:20.248Z,4.97
2019-05-01T19:01:55.222Z,5.28
2019-05-01T19:03:29.980Z,4.60
2019-05-01T19:05:08.756Z,4.53
2019-05-01T19:06:45.029Z,3.25
2019-05-01T19:08:18.697Z,4.83
2019-05-01T19:09:53.058Z,4.08
2019-05-01T19:11:30.019Z,4.42
2019-05-01T19:13:05.150Z,3.30
2019-05-01T19:14:39.526Z,6.70
2019-05-01T19:16:14.560Z,4.65
2019-05-01T19:17:48.825Z,5.12
2019-05-01T19:19:23.811Z,7.00
2019-05-01T19:20:59.825Z,4.53
2019-05-01T19:22:33.975Z,4.95
2019-05-01T19:24:08.172Z,6.10
2019-05-01T19:25:42.755Z,5.47
2019-05-01T19:27:18.880Z,4.80
2019-05-01T19:28:53.301Z,6.97
2019-05-01T19:30:27.584Z,5.55
2019-05-01T19:32:02.973Z,5.20
2019-05-01T19:33:37.401Z,6.80
2019-05-01T19:35:11.864Z,5.08
2019-05-01T19:36:46.418Z,5.62
2019-05-01T19:38:22.202Z,4.25
2019-05-01T19:39:56.919Z,5.47
2019-05-01T19:41:31.624Z,5.33
2019-05-01T19:43:06.385Z,6.62
2019-05-01T19:44:41.335Z,5.85
2019-05-01T19:46:15.730Z,4.53
2019-05-01T19:47:50.001Z,7.67
2019-05-01T19:49:24.759Z,8.85
2019-05-01T19:51:01.028Z,7.67
2019-05-01T19:52:38.055Z,15.78
2019-05-01T19:54:11.592Z,19.42
2019-05-01T19:55:46.729Z,33.42
2019-05-01T19:57:21.373Z,30.80
2019-05-01T19:58:55.685Z,30.45
2019-05-01T20:00:51.138Z,23.55
2019-05-01T20:02:25.769Z,21.57
2019-05-01T20:04:00.035Z,15.88
2019-05-01T20:05:34.390Z,16.42
2019-05-01T20:07:10.677Z,14.63
2019-05-01T20:08:45.368Z,13.53
2019-05-01T20:10:19.583Z,19.40
2019-05-01T20:11:53.994Z,17.50
2019-05-01T20:13:28.212Z,19.50
2019-05-01T20:15:02.823Z,18.98
2019-05-01T20:16:37.234Z,17.98
2019-05-01T20:18:11.453Z,17.92
2019-05-01T20:19:45.700Z,18.02
2019-05-01T20:21:20.574Z,17.32
2019-05-01T20:22:55.401Z,12.58
2019-05-01T20:24:29.784Z,12.58
2019-05-01T20:26:04.036Z,11.90
2019-05-01T20:27:40.161Z,13.55
2019-05-01T20:29:15.119Z,12.23
2019-05-01T20:30:49.694Z,13.62
2019-05-01T20:32:26.352Z,12.90
2019-05-01T20:34:00.242Z,15.18
2019-05-01T20:35:35.166Z,12.80
2019-05-01T20:37:09.532Z,13.28
2019-05-01T20:38:43.744Z,15.20
2019-05-01T20:40:18.164Z,14.95
2019-05-01T20:41:52.439Z,17.12
2019-05-01T20:43:26.701Z,15.05
2019-05-01T20:45:05.412Z,16.90
2019-05-01T20:46:37.033Z,17.55
2019-05-01T20:48:11.251Z,17.62
2019-05-01T20:49:46.155Z,12.45
2019-05-01T20:51:20.463Z,13.78
2019-05-01T20:52:55.498Z,11.88
2019-05-01T20:54:29.772Z,9.88
2019-05-01T20:56:08.353Z,14.43
2019-05-01T20:57:44.200Z,10.08
2019-05-01T20:59:18.758Z,9.85
2019-05-01T21:00:54.805Z,13.75
2019-05-01T21:02:29.237Z,9.88
2019-05-01T21:04:20.558Z,11.22
2019-05-01T21:06:02.990Z,10.35
2019-05-01T21:07:39.736Z,11.73